Time;durP1;ratioP1;P1;durP2;ratioP2;P2;SDS_P1;SDS_P2;PMS_P1;PMS_P2;Temp;Humidity;BMP_temperature;BMP_pressure;BME280_temperature;BME280_humidity;BME280_pressure;Samples;Min_cycle;Max_cycle;Signal;HPM_P1;HPM_P2
2021/01/19 00:01:23;;;;;;;;;;;0.90;99.90;;;;;;5067692;28;19912;-79
2021/01/19 00:03:48;;;;;;;;;;;0.90;99.90;;;;;;5067819;28;19970;-78
2021/01/19 00:06:15;;;;;;;;;;;0.90;99.90;;;;;;5063307;28;19917;-81
2021/01/19 00:08:41;;;;;;;;;;;0.90;99.90;;;;;;5051295;28;20407;-80
2021/01/19 00:11:06;;;;;;;;;;;0.90;99.90;;;;;;5053595;28;19928;-79
2021/01/19 00:13:32;;;;;;;;;;;1.00;99.90;;;;;;5059279;28;19913;-79
2021/01/19 00:15:57;;;;;;;;;;;0.90;99.90;;;;;;5053215;28;19912;-77
2021/01/19 00:18:24;;;;;;;;;;;0.90;99.90;;;;;;5056768;28;19998;-80
2021/01/19 00:20:50;;;;;;;;;;;1.00;99.90;;;;;;5055534;28;20291;-81
2021/01/19 00:23:18;;;;;;;;;;;0.90;99.90;;;;;;5048688;28;19913;-80
2021/01/19 00:28:22;;;;;;;;;;;0.90;99.90;;;;;;5101258;22;19950;-79
2021/01/19 00:30:47;;;;;;;;;;;1.00;99.90;;;;;;5051238;28;20383;-79
2021/01/19 00:33:13;;;;;;;;;;;0.90;99.90;;;;;;5036664;28;20007;-80
2021/01/19 00:35:41;;;;;;;;;;;1.00;99.90;;;;;;5051518;28;19913;-79
2021/01/19 00:38:07;;;;;;;;;;;0.90;99.90;;;;;;5050468;28;19912;-80
2021/01/19 00:40:36;;;;;;;;;;;0.90;99.90;;;;;;5053505;28;20003;-80
2021/01/19 00:43:01;;;;;;;;;;;0.90;99.90;;;;;;5183538;22;19924;-78
2021/01/19 00:45:27;;;;;;;;;;;0.90;99.90;;;;;;5071724;28;19920;-82
2021/01/19 00:47:53;;;;;;;;;;;0.90;99.90;;;;;;5071059;28;19981;-79
2021/01/19 00:50:18;;;;;;;;;;;0.90;99.90;;;;;;5071665;28;19913;-80
2021/01/19 00:52:44;;;;;;;;;;;0.90;99.90;;;;;;5071245;28;20358;-80
2021/01/19 00:55:13;;;;;;;;;;;0.90;99.90;;;;;;5072442;28;20252;-80
2021/01/19 00:57:38;;;;;;;;;;;0.90;99.90;;;;;;5071143;28;19919;-79
2021/01/19 01:00:05;;;;;;;;;;;0.90;99.90;;;;;;5071769;28;19912;-80
2021/01/19 01:02:30;;;;;;;;;;;0.90;99.90;;;;;;5071277;28;20000;-80
2021/01/19 01:04:56;;;;;;;;;;;0.80;99.90;;;;;;5070997;28;20407;-78
2021/01/19 01:07:31;;;;;;;;;;;0.80;99.90;;;;;;5070678;28;19916;-80
2021/01/19 01:09:56;;;;;;;;;;;0.80;99.90;;;;;;5071189;28;19962;-79
2021/01/19 01:12:22;;;;;;;;;;;0.80;99.90;;;;;;5067907;28;20010;-78
2021/01/19 01:14:47;;;;;;;;;;;0.70;99.90;;;;;;5071088;28;20323;-80
2021/01/19 01:17:13;;;;;;;;;;;0.70;99.90;;;;;;5070751;28;19916;-81
2021/01/19 01:19:38;;;;;;;;;;;0.70;99.90;;;;;;5070213;28;19960;-80
2021/01/19 01:22:04;;;;;;;;;;;0.80;99.90;;;;;;5074053;28;19998;-79
2021/01/19 01:24:30;;;;;;;;;;;0.70;99.90;;;;;;5092111;28;20027;-83
2021/01/19 01:26:55;;;;;;;;;;;0.70;99.90;;;;;;5074023;28;20372;-79
2021/01/19 01:29:21;;;;;;;;;;;0.80;99.90;;;;;;5073981;28;19918;-80
2021/01/19 01:31:46;;;;;;;;;;;0.80;99.90;;;;;;5092088;28;19912;-78
2021/01/19 01:34:12;;;;;;;;;;;0.70;99.90;;;;;;5074082;28;19916;-79
2021/01/19 01:36:38;;;;;;;;;;;0.70;99.90;;;;;;5073303;28;19935;-78
2021/01/19 01:39:04;;;;;;;;;;;0.70;99.90;;;;;;5073919;28;20381;-78
2021/01/19 01:41:32;;;;;;;;;;;0.70;99.90;;;;;;5073839;28;19912;-81
2021/01/19 01:44:01;;;;;;;;;;;0.70;99.90;;;;;;5073124;28;20018;-78
2021/01/19 01:46:28;;;;;;;;;;;0.70;99.90;;;;;;5073467;28;20287;-79
2021/01/19 01:48:55;;;;;;;;;;;0.60;99.90;;;;;;5091626;28;19916;-80
2021/01/19 01:51:21;;;;;;;;;;;0.60;99.90;;;;;;5374725;22;19948;-79
2021/01/19 01:53:49;;;;;;;;;;;0.60;99.90;;;;;;5280374;22;20450;-79
2021/01/19 01:56:14;;;;;;;;;;;0.60;99.90;;;;;;5073624;28;19966;-80
2021/01/19 01:58:40;;;;;;;;;;;0.70;99.90;;;;;;5073357;28;19908;-80
2021/01/19 02:01:08;;;;;;;;;;;0.70;99.90;;;;;;5073741;28;20413;-80
2021/01/19 02:03:35;;;;;;;;;;;0.60;99.90;;;;;;5072829;28;19927;-80
2021/01/19 02:06:01;;;;;;;;;;;0.60;99.90;;;;;;5073045;28;19912;-79
2021/01/19 02:08:27;;;;;;;;;;;0.60;99.90;;;;;;5073213;28;19919;-81
2021/01/19 02:10:53;;;;;;;;;;;0.60;99.90;;;;;;5073356;28;19938;-80
2021/01/19 02:13:31;;;;;;;;;;;0.60;99.90;;;;;;5073047;28;19912;-82
2021/01/19 02:16:15;;;;;;;;;;;0.60;99.90;;;;;;5073094;28;19958;-79
2021/01/19 02:19:04;;;;;;;;;;;0.70;99.90;;;;;;5073400;28;19961;-81
2021/01/19 02:21:49;;;;;;;;;;;0.70;99.90;;;;;;5018881;28;20005;-79
2021/01/19 02:24:23;;;;;;;;;;;0.70;99.90;;;;;;5072999;28;19916;-78
2021/01/19 02:27:08;;;;;;;;;;;0.70;99.90;;;;;;5073027;28;20379;-79
2021/01/19 02:29:52;;;;;;;;;;;0.60;99.90;;;;;;5073208;28;19908;-80
2021/01/19 02:32:36;;;;;;;;;;;0.60;99.90;;;;;;5060765;28;19911;-79
2021/01/19 02:35:07;;;;;;;;;;;0.70;99.90;;;;;;5072211;28;19922;-81
2021/01/19 02:37:38;;;;;;;;;;;0.60;99.90;;;;;;5072643;28;19919;-80
2021/01/19 02:40:10;;;;;;;;;;;0.70;99.90;;;;;;5072923;28;20382;-81
2021/01/19 02:42:42;;;;;;;;;;;0.70;99.90;;;;;;5072499;28;19912;-80
2021/01/19 02:45:08;;;;;;;;;;;0.70;99.90;;;;;;5072062;28;19916;-78
2021/01/19 02:47:33;;;;;;;;;;;0.70;99.90;;;;;;5196107;22;20400;-85
2021/01/19 02:49:59;;;;;;;;;;;0.70;99.90;;;;;;5165125;22;19963;-82
2021/01/19 02:52:25;;;;;;;;;;;0.70;99.90;;;;;;5052192;28;20407;-80
2021/01/19 02:54:51;;;;;;;;;;;0.60;99.90;;;;;;5052693;28;19916;-81
2021/01/19 02:57:22;;;;;;;;;;;0.70;99.90;;;;;;5052304;28;19919;-79
2021/01/19 03:00:07;;;;;;;;;;;0.70;99.90;;;;;;5169735;22;20004;-78
2021/01/19 03:02:33;;;;;;;;;;;0.70;99.90;;;;;;5045460;28;19924;-80
2021/01/19 03:05:00;;;;;;;;;;;0.70;99.90;;;;;;5042963;28;19935;-79
2021/01/19 03:07:30;;;;;;;;;;;0.70;99.90;;;;;;5051711;28;19916;-78
2021/01/19 03:09:56;;;;;;;;;;;0.80;99.90;;;;;;5159165;22;19982;-80
2021/01/19 03:12:25;;;;;;;;;;;0.80;99.90;;;;;;5022637;28;19924;-78
2021/01/19 03:14:53;;;;;;;;;;;0.80;99.90;;;;;;5051689;28;19913;-79
2021/01/19 03:17:19;;;;;;;;;;;0.80;99.90;;;;;;5052040;28;20287;-79
2021/01/19 03:19:47;;;;;;;;;;;0.80;99.90;;;;;;5045329;28;19917;-78
2021/01/19 03:22:13;;;;;;;;;;;0.80;99.90;;;;;;5058727;28;19916;-79
2021/01/19 03:24:41;;;;;;;;;;;0.80;99.90;;;;;;5037789;28;20292;-79
2021/01/19 03:27:08;;;;;;;;;;;0.80;99.90;;;;;;5051507;28;20244;-81
2021/01/19 03:29:36;;;;;;;;;;;0.80;99.90;;;;;;5052190;28;20285;-79
2021/01/19 03:32:03;;;;;;;;;;;0.80;99.90;;;;;;5045324;28;19966;-80
2021/01/19 03:34:28;;;;;;;;;;;0.80;99.90;;;;;;5043824;28;19913;-78
2021/01/19 03:36:54;;;;;;;;;;;0.90;99.90;;;;;;5033067;28;19967;-79
2021/01/19 03:39:19;;;;;;;;;;;0.90;99.90;;;;;;5041616;28;19912;-79
2021/01/19 03:41:45;;;;;;;;;;;0.90;99.90;;;;;;5069038;28;19912;-79
2021/01/19 03:44:13;;;;;;;;;;;0.90;99.90;;;;;;5051898;28;19970;-80
2021/01/19 03:46:38;;;;;;;;;;;0.90;99.90;;;;;;5164998;22;19973;-88
2021/01/19 03:49:04;;;;;;;;;;;0.90;99.90;;;;;;5072849;28;20334;-86
2021/01/19 03:51:30;;;;;;;;;;;1.00;99.90;;;;;;5072426;28;19912;-89
2021/01/19 03:53:55;;;;;;;;;;;1.00;99.90;;;;;;5068462;28;20362;-88
2021/01/19 03:56:21;;;;;;;;;;;0.90;99.90;;;;;;5062639;28;19931;-88
2021/01/19 03:58:47;;;;;;;;;;;0.90;99.90;;;;;;5058443;28;19913;-88
2021/01/19 04:01:15;;;;;;;;;;;1.00;99.90;;;;;;5072286;28;19912;-88
2021/01/19 04:03:40;;;;;;;;;;;1.00;99.90;;;;;;5071895;28;20046;-86
2021/01/19 04:06:06;;;;;;;;;;;1.20;99.90;;;;;;5058901;28;20002;-87
2021/01/19 04:08:35;;;;;;;;;;;1.10;99.90;;;;;;5072040;28;20437;-87
2021/01/19 04:11:01;;;;;;;;;;;1.10;99.90;;;;;;5053122;28;19918;-86
2021/01/19 04:13:27;;;;;;;;;;;1.20;99.90;;;;;;5051919;28;19912;-87
2021/01/19 04:15:55;;;;;;;;;;;1.10;99.90;;;;;;5051824;28;19919;-86
2021/01/19 04:21:03;;;;;;;;;;;1.10;99.90;;;;;;5065350;22;19937;-79
2021/01/19 04:23:29;;;;;;;;;;;1.10;99.90;;;;;;5011247;28;20371;-79
2021/01/19 04:25:56;;;;;;;;;;;1.10;99.90;;;;;;5159058;22;20436;-84
2021/01/19 04:28:21;;;;;;;;;;;1.10;99.90;;;;;;5069295;28;19916;-84
2021/01/19 04:30:47;;;;;;;;;;;1.10;99.90;;;;;;5068692;28;19999;-84
2021/01/19 04:33:15;;;;;;;;;;;1.10;99.90;;;;;;5068690;28;19913;-84
2021/01/19 04:35:41;;;;;;;;;;;1.10;99.90;;;;;;5069050;28;20279;-84
2021/01/19 04:38:07;;;;;;;;;;;1.10;99.90;;;;;;5068973;28;19920;-84
2021/01/19 04:40:33;;;;;;;;;;;1.10;99.90;;;;;;5178702;22;20314;-84
2021/01/19 04:42:58;;;;;;;;;;;1.10;99.90;;;;;;5068881;28;19912;-84
2021/01/19 04:45:26;;;;;;;;;;;1.20;99.90;;;;;;5068754;28;19921;-84
2021/01/19 04:47:52;;;;;;;;;;;1.20;99.90;;;;;;5068603;28;19999;-84
2021/01/19 04:50:20;;;;;;;;;;;1.20;99.90;;;;;;5148915;22;20027;-84
2021/01/19 04:52:50;;;;;;;;;;;1.10;99.90;;;;;;5028659;28;19916;-84
2021/01/19 04:55:19;;;;;;;;;;;1.10;99.90;;;;;;5029235;28;19913;-84
2021/01/19 04:57:52;;;;;;;;;;;1.10;99.90;;;;;;5029165;28;19915;-84
2021/01/19 05:00:17;;;;;;;;;;;1.10;99.90;;;;;;5028573;28;19920;-84
2021/01/19 05:02:46;;;;;;;;;;;1.10;99.90;;;;;;5028509;28;19913;-84
2021/01/19 05:05:20;;;;;;;;;;;1.10;99.90;;;;;;5028318;28;20020;-84
2021/01/19 05:08:22;;;;;;;;;;;1.10;99.90;;;;;;5022667;28;19917;-83
2021/01/19 05:10:53;;;;;;;;;;;1.10;99.90;;;;;;5019232;28;20085;-84
2021/01/19 05:13:36;;;;;;;;;;;1.10;99.90;;;;;;5019353;28;20368;-84
2021/01/19 05:16:03;;;;;;;;;;;1.10;99.90;;;;;;5003423;28;19921;-84
2021/01/19 05:18:30;;;;;;;;;;;1.00;99.90;;;;;;5016915;28;19913;-84
2021/01/19 05:20:59;;;;;;;;;;;1.00;99.90;;;;;;5016899;28;19953;-84
2021/01/19 05:23:25;;;;;;;;;;;1.00;99.90;;;;;;5017051;28;19964;-84
2021/01/19 05:26:00;;;;;;;;;;;1.00;99.90;;;;;;5016320;28;19917;-84
2021/01/19 05:28:36;;;;;;;;;;;1.00;99.90;;;;;;5028178;28;19964;-84
2021/01/19 05:31:25;;;;;;;;;;;0.90;99.90;;;;;;5023002;28;20066;-84
2021/01/19 05:34:06;;;;;;;;;;;0.90;99.90;;;;;;5010832;28;20356;-84
2021/01/19 05:36:33;;;;;;;;;;;1.00;99.90;;;;;;5029313;28;20426;-84
2021/01/19 05:38:58;;;;;;;;;;;0.90;99.90;;;;;;5023738;28;19933;-84
2021/01/19 05:41:24;;;;;;;;;;;0.90;99.90;;;;;;5020148;28;20356;-84
2021/01/19 05:43:53;;;;;;;;;;;0.90;99.90;;;;;;5012943;28;19921;-84
2021/01/19 05:46:28;;;;;;;;;;;0.90;99.90;;;;;;5011842;28;19916;-84
2021/01/19 05:49:04;;;;;;;;;;;0.80;99.90;;;;;;5011618;28;20292;-84
2021/01/19 05:51:30;;;;;;;;;;;0.80;99.90;;;;;;5013115;28;20139;-84
2021/01/19 05:53:56;;;;;;;;;;;0.80;99.90;;;;;;5011844;28;19959;-84
2021/01/19 05:56:22;;;;;;;;;;;0.80;99.90;;;;;;5011441;28;19914;-84
2021/01/19 05:58:48;;;;;;;;;;;0.70;99.90;;;;;;5011552;28;19924;-83
2021/01/19 06:01:24;;;;;;;;;;;0.70;99.90;;;;;;5022598;28;19917;-84
2021/01/19 06:03:55;;;;;;;;;;;0.70;99.90;;;;;;5048083;28;19990;-83
2021/01/19 06:06:23;;;;;;;;;;;0.70;99.90;;;;;;5028026;28;19918;-84
2021/01/19 06:08:56;;;;;;;;;;;0.70;99.90;;;;;;5011604;28;19913;-84
2021/01/19 06:11:22;;;;;;;;;;;0.70;99.90;;;;;;5018090;28;20012;-83
2021/01/19 06:13:49;;;;;;;;;;;0.70;99.90;;;;;;5028015;28;20516;-83
2021/01/19 06:16:15;;;;;;;;;;;0.60;99.90;;;;;;5018521;28;20027;-84
2021/01/19 06:18:40;;;;;;;;;;;0.60;99.90;;;;;;5011692;28;20008;-83
2021/01/19 06:21:06;;;;;;;;;;;0.70;99.90;;;;;;5011552;28;19913;-84
2021/01/19 06:23:31;;;;;;;;;;;0.60;99.90;;;;;;5010973;28;19921;-83
2021/01/19 06:26:06;;;;;;;;;;;0.60;99.90;;;;;;5155742;23;20450;-81
2021/01/19 06:28:41;;;;;;;;;;;0.60;99.90;;;;;;5062434;28;19921;-81
2021/01/19 06:31:13;;;;;;;;;;;0.60;99.90;;;;;;5172578;22;19947;-84
2021/01/19 06:33:41;;;;;;;;;;;0.60;99.90;;;;;;5034371;28;19913;-84
2021/01/19 06:36:09;;;;;;;;;;;0.60;99.90;;;;;;5034035;28;19916;-84
2021/01/19 06:38:34;;;;;;;;;;;0.60;99.90;;;;;;5034162;28;20279;-84
2021/01/19 06:41:03;;;;;;;;;;;0.60;99.90;;;;;;5033858;28;19909;-84
2021/01/19 06:43:34;;;;;;;;;;;0.50;99.90;;;;;;5033672;28;20363;-84
2021/01/19 06:46:05;;;;;;;;;;;0.50;99.90;;;;;;5033853;28;20206;-84
2021/01/19 06:48:31;;;;;;;;;;;0.50;99.90;;;;;;5033815;28;19913;-84
2021/01/19 06:51:02;;;;;;;;;;;0.60;99.90;;;;;;5033637;28;19913;-84
2021/01/19 06:53:39;;;;;;;;;;;0.60;99.90;;;;;;5013754;28;20004;-84
2021/01/19 06:56:09;;;;;;;;;;;0.50;99.90;;;;;;5038204;28;20386;-84
2021/01/19 06:58:38;;;;;;;;;;;0.50;99.90;;;;;;5048457;28;20380;-85
2021/01/19 07:01:08;;;;;;;;;;;0.50;99.90;;;;;;5033622;28;19912;-84
2021/01/19 07:03:37;;;;;;;;;;;0.50;99.90;;;;;;5030680;28;19913;-84
2021/01/19 07:08:58;;;;;;;;;;;0.40;99.90;;;;;;5071652;22;19992;-78
2021/01/19 07:11:43;;;;;;;;;;;0.40;99.90;;;;;;5023144;28;19917;-81
2021/01/19 07:14:30;;;;;;;;;;;0.40;99.90;;;;;;5022879;28;19913;-81
2021/01/19 07:17:05;;;;;;;;;;;0.50;99.90;;;;;;5026868;28;19913;-81
2021/01/19 07:22:34;;;;;;;;;;;0.40;99.90;;;;;;5040174;28;19924;-83
2021/01/19 07:25:02;;;;;;;;;;;0.40;99.90;;;;;;5020736;28;19921;-80
2021/01/19 07:27:31;;;;;;;;;;;0.40;99.90;;;;;;5020908;28;19921;-81
2021/01/19 07:30:00;;;;;;;;;;;0.40;99.90;;;;;;5023324;28;19912;-80
2021/01/19 07:32:27;;;;;;;;;;;0.40;99.90;;;;;;5021030;28;20091;-79
2021/01/19 07:34:53;;;;;;;;;;;0.50;99.90;;;;;;5023158;28;20403;-80
2021/01/19 07:37:35;;;;;;;;;;;0.40;99.90;;;;;;5021766;28;19971;-79
2021/01/19 07:40:03;;;;;;;;;;;0.40;99.90;;;;;;5022654;28;20343;-82
2021/01/19 07:45:12;;;;;;;;;;;0.50;99.90;;;;;;5086716;22;19928;-83
2021/01/19 07:47:41;;;;;;;;;;;0.50;99.90;;;;;;5050250;28;20525;-83
2021/01/19 07:50:12;;;;;;;;;;;0.50;99.90;;;;;;5051568;28;19978;-83
2021/01/19 07:52:38;;;;;;;;;;;0.50;99.90;;;;;;5049946;28;20279;-83
2021/01/19 07:55:14;;;;;;;;;;;0.60;99.90;;;;;;5052678;28;20397;-83
2021/01/19 07:57:42;;;;;;;;;;;0.60;99.90;;;;;;5050426;28;19912;-83
2021/01/19 08:00:10;;;;;;;;;;;0.60;99.90;;;;;;5052272;28;20370;-83
2021/01/19 08:02:36;;;;;;;;;;;0.60;99.90;;;;;;5067457;28;20248;-83
2021/01/19 08:05:05;;;;;;;;;;;0.60;99.90;;;;;;5052576;28;19924;-83
2021/01/19 08:07:43;;;;;;;;;;;0.70;99.90;;;;;;5070029;28;20533;-83
2021/01/19 08:10:19;;;;;;;;;;;0.70;99.90;;;;;;5052422;28;19924;-83
2021/01/19 08:12:50;;;;;;;;;;;0.80;99.90;;;;;;5048623;28;19998;-83
2021/01/19 08:15:20;;;;;;;;;;;0.80;99.90;;;;;;5050249;28;20419;-83
2021/01/19 08:17:49;;;;;;;;;;;0.90;99.90;;;;;;5051987;28;19920;-83
2021/01/19 08:20:24;;;;;;;;;;;0.90;99.90;;;;;;5049538;28;20026;-83
2021/01/19 08:22:50;;;;;;;;;;;1.00;99.90;;;;;;5051678;28;19912;-83
2021/01/19 08:25:29;;;;;;;;;;;1.00;99.90;;;;;;5069805;28;20446;-84
2021/01/19 08:27:58;;;;;;;;;;;1.10;99.90;;;;;;5048828;28;20052;-83
2021/01/19 08:30:28;;;;;;;;;;;1.10;99.90;;;;;;5070055;28;19912;-83
2021/01/19 08:32:55;;;;;;;;;;;1.20;99.90;;;;;;5069698;28;20291;-83
2021/01/19 08:35:23;;;;;;;;;;;1.30;99.90;;;;;;5051597;28;19920;-83
2021/01/19 08:37:50;;;;;;;;;;;1.30;99.90;;;;;;5050708;28;19923;-83
2021/01/19 08:40:23;;;;;;;;;;;1.40;99.90;;;;;;5051812;28;19919;-84
2021/01/19 08:42:49;;;;;;;;;;;1.40;99.90;;;;;;5050975;28;19917;-84
2021/01/19 08:45:25;;;;;;;;;;;1.50;99.90;;;;;;5512596;22;19934;-85
2021/01/19 08:47:51;;;;;;;;;;;1.60;99.90;;;;;;5025568;28;19921;-83
2021/01/19 08:50:17;;;;;;;;;;;1.70;99.90;;;;;;5140920;22;20031;-80
2021/01/19 08:52:43;;;;;;;;;;;1.70;99.90;;;;;;5030099;28;20419;-83
2021/01/19 08:55:18;;;;;;;;;;;1.80;99.90;;;;;;5030615;28;19913;-81
2021/01/19 08:57:49;;;;;;;;;;;1.80;99.90;;;;;;5045356;28;19913;-82
2021/01/19 09:05:26;;;;;;;;;;;2.00;99.90;;;;;;5152610;22;20748;-84
2021/01/19 09:07:52;;;;;;;;;;;2.00;99.90;;;;;;5063674;28;19916;-85
2021/01/19 09:10:25;;;;;;;;;;;2.00;99.90;;;;;;5171450;22;20020;-89
2021/01/19 09:12:51;;;;;;;;;;;2.00;99.90;;;;;;5054858;28;19963;-87
2021/01/19 09:15:17;;;;;;;;;;;2.10;99.90;;;;;;5055544;28;19913;-88
2021/01/19 09:17:54;;;;;;;;;;;2.10;99.90;;;;;;5055393;28;19916;-89
2021/01/19 09:20:23;;;;;;;;;;;2.10;99.90;;;;;;5055203;28;19915;-89
2021/01/19 09:22:51;;;;;;;;;;;2.20;99.90;;;;;;5055079;28;19946;-88
2021/01/19 09:25:18;;;;;;;;;;;2.30;99.90;;;;;;5054926;28;19969;-90
2021/01/19 09:27:44;;;;;;;;;;;2.30;99.90;;;;;;5054129;28;19962;-88
2021/01/19 09:30:13;;;;;;;;;;;2.30;99.90;;;;;;5054621;28;19913;-89
2021/01/19 09:32:42;;;;;;;;;;;2.30;99.90;;;;;;5136982;22;19929;-87
2021/01/19 09:35:09;;;;;;;;;;;2.30;99.90;;;;;;5016307;28;19930;-88
2021/01/19 09:37:34;;;;;;;;;;;2.30;99.90;;;;;;5015188;28;20372;-88
2021/01/19 09:40:00;;;;;;;;;;;2.40;99.90;;;;;;5015386;28;19913;-90
2021/01/19 09:42:26;;;;;;;;;;;2.30;99.90;;;;;;5014888;28;19921;-88
2021/01/19 09:44:52;;;;;;;;;;;2.30;99.90;;;;;;5014491;28;19924;-89
2021/01/19 09:47:34;;;;;;;;;;;2.40;99.90;;;;;;5015033;28;19910;-90
2021/01/19 09:49:59;;;;;;;;;;;2.40;99.90;;;;;;5014858;28;19909;-89
2021/01/19 09:52:29;;;;;;;;;;;2.40;99.90;;;;;;5015025;28;20033;-88
2021/01/19 09:55:05;;;;;;;;;;;2.40;99.90;;;;;;5261773;22;19928;-82
2021/01/19 09:57:33;;;;;;;;;;;2.40;99.90;;;;;;5033134;28;19947;-83
2021/01/19 09:59:58;;;;;;;;;;;2.50;99.90;;;;;;5033663;28;19913;-83
2021/01/19 10:02:28;;;;;;;;;;;2.40;99.90;;;;;;5033778;28;20283;-84
2021/01/19 10:04:57;;;;;;;;;;;2.50;99.90;;;;;;5033369;28;19916;-82
2021/01/19 10:07:26;;;;;;;;;;;2.50;99.90;;;;;;5163322;22;20464;-81
2021/01/19 10:09:52;;;;;;;;;;;2.50;99.90;;;;;;5070372;28;19923;-81
2021/01/19 10:12:20;;;;;;;;;;;2.50;99.90;;;;;;5069711;28;20024;-80
2021/01/19 10:14:46;;;;;;;;;;;2.50;99.90;;;;;;5070171;28;19913;-80
2021/01/19 10:17:11;;;;;;;;;;;2.50;99.90;;;;;;5070356;28;19912;-79
2021/01/19 10:19:37;;;;;;;;;;;2.50;99.90;;;;;;5178948;22;19928;-86
2021/01/19 10:22:06;;;;;;;;;;;2.50;99.90;;;;;;5034765;28;19927;-86
2021/01/19 10:24:34;;;;;;;;;;;2.50;99.90;;;;;;5034418;28;20367;-87
2021/01/19 10:27:01;;;;;;;;;;;2.50;99.90;;;;;;5034304;28;19921;-87
2021/01/19 10:29:28;;;;;;;;;;;2.50;99.90;;;;;;5034500;28;19939;-86
2021/01/19 10:31:57;;;;;;;;;;;2.60;99.70;;;;;;5051946;28;19912;-86
2021/01/19 10:34:24;;;;;;;;;;;2.60;99.90;;;;;;5034265;28;19912;-87
2021/01/19 10:36:57;;;;;;;;;;;2.60;99.90;;;;;;5034463;28;19916;-86
2021/01/19 10:39:24;;;;;;;;;;;2.60;99.90;;;;;;5034246;28;19912;-86
2021/01/19 10:41:53;;;;;;;;;;;2.60;99.90;;;;;;5052311;28;19917;-86
2021/01/19 10:44:21;;;;;;;;;;;2.60;99.90;;;;;;5142639;23;20032;-86
2021/01/19 10:46:54;;;;;;;;;;;2.70;99.90;;;;;;5171430;22;20756;-87
2021/01/19 10:49:22;;;;;;;;;;;2.70;99.90;;;;;;5073878;28;19920;-86
2021/01/19 10:51:51;;;;;;;;;;;2.60;99.90;;;;;;5073822;28;20362;-87
2021/01/19 10:54:19;;;;;;;;;;;2.70;99.90;;;;;;5086949;28;20007;-86
2021/01/19 10:56:46;;;;;;;;;;;2.80;99.90;;;;;;5068496;28;20008;-86
2021/01/19 10:59:14;;;;;;;;;;;2.80;99.90;;;;;;5063136;28;20026;-86
2021/01/19 11:01:42;;;;;;;;;;;2.70;99.90;;;;;;5064631;28;20025;-87
2021/01/19 11:04:07;;;;;;;;;;;2.70;99.90;;;;;;5073058;28;19938;-86
2021/01/19 11:06:36;;;;;;;;;;;2.60;99.90;;;;;;5073756;28;20359;-87
2021/01/19 11:09:05;;;;;;;;;;;2.60;99.90;;;;;;5073667;28;19960;-87
2021/01/19 11:11:34;;;;;;;;;;;2.60;99.90;;;;;;5066856;28;19913;-86
2021/01/19 11:14:03;;;;;;;;;;;2.70;99.90;;;;;;5053176;28;19966;-86
2021/01/19 11:16:33;;;;;;;;;;;2.70;99.90;;;;;;5053227;28;19913;-87
2021/01/19 11:19:03;;;;;;;;;;;2.70;99.90;;;;;;5053267;28;20069;-86
2021/01/19 11:21:32;;;;;;;;;;;2.70;99.90;;;;;;5053492;28;19912;-86
2021/01/19 11:23:58;;;;;;;;;;;2.80;99.90;;;;;;5052041;28;19916;-86
2021/01/19 11:26:24;;;;;;;;;;;2.80;99.90;;;;;;5052961;28;19942;-87
2021/01/19 11:28:49;;;;;;;;;;;2.80;99.90;;;;;;5071196;28;20007;-87
2021/01/19 11:31:23;;;;;;;;;;;2.90;99.90;;;;;;5052955;28;19913;-86
2021/01/19 11:33:52;;;;;;;;;;;2.90;99.90;;;;;;5071199;28;19955;-87
2021/01/19 11:36:24;;;;;;;;;;;2.90;99.90;;;;;;5053015;28;19912;-87
2021/01/19 11:38:51;;;;;;;;;;;2.90;99.90;;;;;;5055796;28;19919;-86
2021/01/19 11:41:17;;;;;;;;;;;2.90;99.90;;;;;;5053347;28;20023;-87
2021/01/19 11:43:43;;;;;;;;;;;2.90;99.90;;;;;;5052571;28;19912;-87
2021/01/19 11:46:09;;;;;;;;;;;3.00;99.90;;;;;;5053486;28;20003;-86
2021/01/19 11:48:35;;;;;;;;;;;3.00;99.90;;;;;;5162277;22;19935;-89
2021/01/19 11:51:05;;;;;;;;;;;3.00;99.90;;;;;;5050852;28;19935;-91
2021/01/19 11:53:31;;;;;;;;;;;3.00;99.90;;;;;;5051476;28;19913;-90
2021/01/19 11:55:59;;;;;;;;;;;3.00;99.90;;;;;;5051780;28;20240;-89
2021/01/19 11:58:24;;;;;;;;;;;3.00;99.90;;;;;;5051953;28;19948;-88
2021/01/19 12:00:50;;;;;;;;;;;3.10;99.90;;;;;;5052744;28;20347;-87
2021/01/19 12:03:18;;;;;;;;;;;3.10;99.90;;;;;;5051480;28;19909;-87
2021/01/19 12:08:19;;;;;;;;;;;3.10;99.90;;;;;;5101870;22;19929;-87
2021/01/19 12:10:45;;;;;;;;;;;3.10;99.90;;;;;;5032577;28;20364;-86
2021/01/19 12:13:13;;;;;;;;;;;3.10;99.90;;;;;;5034040;28;19917;-87
2021/01/19 12:15:43;;;;;;;;;;;3.10;99.90;;;;;;5017562;28;20430;-87
2021/01/19 12:18:11;;;;;;;;;;;3.10;99.90;;;;;;5012938;28;19913;-87
2021/01/19 12:20:37;;;;;;;;;;;3.10;99.90;;;;;;5012726;28;19913;-87
2021/01/19 12:23:03;;;;;;;;;;;3.10;99.90;;;;;;5012867;28;19919;-86
2021/01/19 12:25:30;;;;;;;;;;;3.20;99.90;;;;;;5013213;28;19917;-87
2021/01/19 12:27:57;;;;;;;;;;;3.20;99.90;;;;;;5030369;28;20011;-86
2021/01/19 12:30:24;;;;;;;;;;;3.20;99.90;;;;;;5013050;28;19963;-87
2021/01/19 12:35:37;;;;;;;;;;;3.30;99.90;;;;;;5030311;28;19913;-86
2021/01/19 12:38:03;;;;;;;;;;;3.30;99.90;;;;;;5012717;28;20390;-86
2021/01/19 12:40:31;;;;;;;;;;;3.30;99.90;;;;;;5013076;28;19940;-86
2021/01/19 12:42:56;;;;;;;;;;;3.40;99.90;;;;;;5012352;28;19955;-87
2021/01/19 12:45:24;;;;;;;;;;;3.50;99.90;;;;;;5012619;28;19921;-86
2021/01/19 12:47:50;;;;;;;;;;;3.50;99.90;;;;;;5012838;28;20007;-87
2021/01/19 12:50:16;;;;;;;;;;;3.50;99.90;;;;;;5012787;28;20320;-87
2021/01/19 12:52:47;;;;;;;;;;;3.50;99.90;;;;;;5012416;28;20339;-87
2021/01/19 12:55:13;;;;;;;;;;;3.50;99.90;;;;;;5012621;28;20288;-86
2021/01/19 12:57:38;;;;;;;;;;;3.60;99.90;;;;;;5020888;28;19963;-87
2021/01/19 13:00:05;;;;;;;;;;;3.60;99.90;;;;;;5025381;28;19923;-85
2021/01/19 13:02:32;;;;;;;;;;;3.60;99.90;;;;;;5042049;28;19909;-84
2021/01/19 13:04:59;;;;;;;;;;;3.60;99.90;;;;;;5026706;28;20035;-85
2021/01/19 13:07:26;;;;;;;;;;;3.60;99.90;;;;;;5315193;22;19940;-89
2021/01/19 13:09:57;;;;;;;;;;;3.60;99.90;;;;;;5029282;28;19991;-93
2021/01/19 14:59:10;;;;;;;;;;;4.30;99.90;;;;;;5066308;22;20442;-90
2021/01/19 15:01:41;;;;;;;;;;;4.30;99.90;;;;;;5017509;28;19913;-88
2021/01/19 15:04:19;;;;;;;;;;;4.30;99.90;;;;;;5013275;28;20043;-92
2021/01/19 15:06:50;;;;;;;;;;;4.30;99.90;;;;;;5034945;28;20019;-89
2021/01/19 15:09:17;;;;;;;;;;;4.30;99.90;;;;;;5016744;28;19909;-89
2021/01/19 15:12:03;;;;;;;;;;;4.30;99.90;;;;;;5017155;28;20008;-90
2021/01/19 15:14:30;;;;;;;;;;;4.30;99.90;;;;;;5016324;28;19920;-89
2021/01/19 15:16:56;;;;;;;;;;;4.30;99.90;;;;;;5016937;28;19945;-89
2021/01/19 15:19:22;;;;;;;;;;;4.30;99.90;;;;;;5016705;28;20130;-90
2021/01/19 15:21:49;;;;;;;;;;;4.30;99.90;;;;;;5016250;28;20358;-91
2021/01/19 15:24:17;;;;;;;;;;;4.30;99.90;;;;;;5016060;28;20387;-90
2021/01/19 15:26:49;;;;;;;;;;;4.30;99.90;;;;;;5016182;28;19924;-90
2021/01/19 15:29:15;;;;;;;;;;;4.30;99.90;;;;;;5015632;28;19920;-89
2021/01/19 15:31:45;;;;;;;;;;;4.30;99.90;;;;;;5014983;28;19935;-89
2021/01/19 15:34:14;;;;;;;;;;;4.30;99.90;;;;;;5168854;22;19928;-82
2021/01/19 15:36:41;;;;;;;;;;;4.30;99.90;;;;;;5072411;28;20335;-81
2021/01/19 15:39:11;;;;;;;;;;;4.30;99.90;;;;;;5072389;28;19923;-82
2021/01/19 15:41:40;;;;;;;;;;;4.30;99.90;;;;;;5090124;28;19916;-84
2021/01/19 15:44:09;;;;;;;;;;;4.30;99.90;;;;;;5071738;28;19959;-82
2021/01/19 15:52:50;;;;;;;;;;;4.30;99.90;;;;;;5078794;22;19962;-81
2021/01/19 15:55:18;;;;;;;;;;;4.30;99.90;;;;;;5052007;28;19916;-81
2021/01/19 15:57:43;;;;;;;;;;;4.30;99.90;;;;;;5070040;28;19920;-81
2021/01/19 16:00:12;;;;;;;;;;;4.30;99.90;;;;;;5052278;28;19912;-81
2021/01/19 16:02:38;;;;;;;;;;;4.30;99.90;;;;;;5052238;28;19998;-81
2021/01/19 16:05:05;;;;;;;;;;;4.30;99.90;;;;;;5052113;28;20352;-82
2021/01/19 16:07:32;;;;;;;;;;;4.20;99.90;;;;;;5051427;28;19966;-82
2021/01/19 16:09:58;;;;;;;;;;;4.20;99.90;;;;;;5051438;28;19913;-81
2021/01/19 16:12:24;;;;;;;;;;;4.30;99.90;;;;;;5052259;28;20412;-81
2021/01/19 16:14:49;;;;;;;;;;;4.20;99.90;;;;;;5052628;28;19913;-82
2021/01/19 16:17:16;;;;;;;;;;;4.30;99.90;;;;;;5051896;28;19951;-81
2021/01/19 16:19:45;;;;;;;;;;;4.20;99.90;;;;;;5052050;28;20015;-83
2021/01/19 16:22:11;;;;;;;;;;;4.20;99.90;;;;;;5052222;28;19913;-81
2021/01/19 16:24:36;;;;;;;;;;;4.20;99.90;;;;;;5052026;28;19970;-81
2021/01/19 16:27:02;;;;;;;;;;;4.30;99.90;;;;;;5052042;28;19917;-80
2021/01/19 16:29:28;;;;;;;;;;;4.20;99.90;;;;;;5051702;28;19955;-80
2021/01/19 16:31:53;;;;;;;;;;;4.20;99.90;;;;;;5051785;28;19923;-82
2021/01/19 16:34:19;;;;;;;;;;;4.20;99.90;;;;;;5051993;28;19913;-81
2021/01/19 16:36:45;;;;;;;;;;;4.20;99.90;;;;;;5051338;28;19966;-82
2021/01/19 16:39:13;;;;;;;;;;;4.20;99.90;;;;;;5047658;28;19912;-81
2021/01/19 16:41:43;;;;;;;;;;;4.20;99.90;;;;;;5042593;28;19917;-82
2021/01/19 16:44:10;;;;;;;;;;;4.20;99.90;;;;;;5057457;28;20343;-82
2021/01/19 16:46:36;;;;;;;;;;;4.20;99.90;;;;;;5039423;28;20295;-82
2021/01/19 16:52:05;;;;;;;;;;;4.20;99.90;;;;;;5056423;28;19920;-81
2021/01/19 16:54:34;;;;;;;;;;;4.20;99.90;;;;;;5043185;22;19933;-83
2021/01/19 16:57:00;;;;;;;;;;;4.20;99.90;;;;;;5012127;28;19913;-83
2021/01/19 16:59:25;;;;;;;;;;;4.20;99.90;;;;;;5011473;28;20029;-82